createdAt,value
2018-04-19T06:20:26.319Z,12.90
2018-04-19T06:22:53.825Z,12.90
2018-04-19T06:25:21.299Z,12.90
2018-04-19T06:27:48.803Z,12.90
2018-04-19T06:30:16.277Z,12.90
2018-04-19T06:32:43.760Z,12.90
2018-04-19T06:35:11.988Z,13.00
2018-04-19T06:42:43.179Z,13.30
2018-04-19T06:45:10.643Z,13.20
2018-04-19T06:52:36.918Z,13.40
2018-04-19T06:55:04.473Z,13.40
2018-04-19T06:57:31.961Z,13.50
2018-04-19T06:59:59.445Z,13.50
2018-04-19T07:02:26.960Z,13.50
2018-04-19T07:04:54.422Z,13.50
2018-04-19T07:07:21.883Z,13.60
2018-04-19T07:09:50.296Z,13.60
2018-04-19T07:12:17.757Z,13.60
2018-04-19T07:14:45.433Z,13.60
2018-04-19T07:17:12.830Z,13.70
2018-04-19T07:19:40.332Z,13.80
2018-04-19T07:22:08.232Z,13.80
2018-04-19T07:24:35.727Z,13.80
2018-04-19T07:27:04.278Z,14.00
2018-04-19T07:29:31.762Z,14.00
2018-04-19T07:31:59.992Z,14.10
2018-04-19T07:34:27.485Z,14.00
2018-04-19T07:36:54.936Z,14.10
2018-04-19T07:39:22.436Z,14.10
2018-04-19T07:41:49.921Z,14.20
2018-04-19T07:44:17.426Z,14.30
2018-04-19T07:46:44.917Z,14.30
2018-04-19T08:23:59.773Z,16.00
2018-04-19T08:26:27.340Z,16.00
2018-04-19T08:28:54.815Z,16.20
2018-04-19T08:31:23.053Z,16.40
2018-04-19T08:33:50.536Z,16.40
2018-04-19T08:36:17.981Z,16.50
2018-04-19T08:51:11.172Z,17.20
2018-04-19T08:53:38.652Z,17.20
2018-04-19T08:56:06.125Z,17.20
2018-04-19T08:58:33.628Z,17.40
2018-04-19T09:48:11.307Z,19.10
2018-04-19T09:55:37.019Z,19.30
2018-04-19T09:58:08.402Z,19.40
2018-04-19T10:00:41.589Z,19.50
2018-04-19T10:03:23.803Z,19.60
2018-04-19T10:05:56.892Z,19.60
2018-04-19T10:08:24.393Z,19.70
2018-04-19T10:10:51.842Z,19.80
